createdAt,value
2018-07-14T00:00:01.973Z,0.00
2018-07-14T00:01:02.044Z,0.00
2018-07-14T00:02:01.978Z,0.00
2018-07-14T00:03:02.043Z,0.00
2018-07-14T00:04:01.977Z,0.00
2018-07-14T00:05:02.058Z,0.00
2018-07-14T00:06:02.046Z,0.00
2018-07-14T00:07:01.981Z,0.00
2018-07-14T00:08:01.984Z,0.00
2018-07-14T00:09:02.048Z,0.00
2018-07-14T00:10:02.145Z,0.00
2018-07-14T00:11:01.941Z,0.00
2018-07-14T00:12:01.982Z,0.00
2018-07-14T00:13:01.981Z,0.00
2018-07-14T00:14:01.994Z,0.00
2018-07-14T00:15:02.054Z,0.00
2018-07-14T00:16:02.052Z,0.00
2018-07-14T00:17:02.035Z,0.00
2018-07-14T00:18:01.988Z,0.00
2018-07-14T00:19:02.056Z,0.00
2018-07-14T00:20:01.996Z,0.00
2018-07-14T00:21:01.959Z,0.00
2018-07-14T00:22:02.021Z,0.00
2018-07-14T00:23:02.057Z,0.00
2018-07-14T00:24:02.011Z,0.00
2018-07-14T00:25:02.061Z,0.00
2018-07-14T00:26:02.081Z,0.00
2018-07-14T00:27:02.061Z,0.00
2018-07-14T00:28:02.036Z,0.00
2018-07-14T00:29:01.968Z,0.00
2018-07-14T00:30:02.096Z,0.00
2018-07-14T00:31:02.087Z,0.00
2018-07-14T00:32:02.045Z,0.00
2018-07-14T00:33:01.986Z,0.00
2018-07-14T00:34:02.009Z,0.00
2018-07-14T00:35:02.007Z,0.00
2018-07-14T00:36:02.090Z,0.00
2018-07-14T00:37:02.006Z,0.00
2018-07-14T00:38:02.035Z,0.00
2018-07-14T00:39:02.069Z,0.00
2018-07-14T00:40:02.058Z,0.00
2018-07-14T00:41:01.998Z,0.00
2018-07-14T00:42:02.014Z,0.00
2018-07-14T00:43:01.940Z,0.00
2018-07-14T00:44:01.946Z,0.00
2018-07-14T00:45:02.067Z,0.00
2018-07-14T00:46:02.124Z,0.00
2018-07-14T00:47:02.011Z,0.10
2018-07-14T00:48:02.065Z,0.00
2018-07-14T00:49:01.993Z,0.10
2018-07-14T00:50:02.068Z,0.00
2018-07-14T00:51:02.055Z,0.00
2018-07-14T00:52:01.982Z,0.00
2018-07-14T00:53:02.109Z,0.00
2018-07-14T00:54:02.018Z,0.00
2018-07-14T00:55:02.078Z,0.00
2018-07-14T00:56:01.985Z,0.00
2018-07-14T00:57:02.059Z,0.00
2018-07-14T00:58:02.008Z,0.00
2018-07-14T00:59:02.021Z,0.00
2018-07-14T01:00:02.115Z,0.00
2018-07-14T01:01:02.124Z,0.00
2018-07-14T01:02:02.106Z,0.00
2018-07-14T01:03:02.064Z,0.00
2018-07-14T01:04:02.086Z,0.00
2018-07-14T01:05:01.988Z,0.00
2018-07-14T01:06:02.054Z,0.00
2018-07-14T01:07:02.057Z,0.00
2018-07-14T01:08:02.116Z,0.00
2018-07-14T01:09:02.044Z,0.00
2018-07-14T01:10:02.113Z,0.00
2018-07-14T01:11:02.090Z,0.00
2018-07-14T01:12:02.015Z,0.00
2018-07-14T01:13:02.120Z,0.00
2018-07-14T01:14:02.128Z,0.00
2018-07-14T01:15:02.135Z,0.00
2018-07-14T01:16:02.037Z,0.00
2018-07-14T01:17:02.054Z,0.00
2018-07-14T01:18:02.070Z,0.00
2018-07-14T01:19:02.094Z,0.00
2018-07-14T01:20:02.075Z,0.00
2018-07-14T01:21:01.999Z,0.00
2018-07-14T01:22:02.098Z,0.00
2018-07-14T01:23:02.016Z,0.00
2018-07-14T01:24:02.132Z,0.00
2018-07-14T01:25:01.998Z,0.00
2018-07-14T01:26:02.023Z,0.00
2018-07-14T01:27:02.058Z,0.00
2018-07-14T01:28:02.075Z,0.00
2018-07-14T01:29:02.103Z,0.00
2018-07-14T01:30:02.040Z,0.00
2018-07-14T01:31:02.075Z,0.00
2018-07-14T01:32:02.106Z,0.00
2018-07-14T01:33:02.109Z,0.00
2018-07-14T01:34:02.037Z,0.00
2018-07-14T01:35:02.110Z,0.00
2018-07-14T01:36:02.038Z,0.00
2018-07-14T01:37:02.111Z,0.00
2018-07-14T01:38:02.043Z,0.00
2018-07-14T01:39:02.114Z,0.00
2018-07-14T01:40:02.044Z,0.00
2018-07-14T01:41:02.129Z,0.00
2018-07-14T01:42:02.113Z,0.00
2018-07-14T01:43:02.044Z,0.00
2018-07-14T01:44:02.114Z,0.00
2018-07-14T01:45:02.053Z,0.00
2018-07-14T01:46:02.112Z,0.00
2018-07-14T01:47:02.119Z,0.00
2018-07-14T01:48:02.115Z,0.00
2018-07-14T01:49:02.054Z,0.00
2018-07-14T01:50:02.119Z,0.00
2018-07-14T01:51:02.055Z,0.00
2018-07-14T01:52:02.056Z,0.00
2018-07-14T01:53:02.080Z,0.00
2018-07-14T01:54:02.118Z,0.00
2018-07-14T01:55:02.050Z,0.00
2018-07-14T01:56:02.124Z,0.00
2018-07-14T01:57:02.055Z,0.00
2018-07-14T01:58:02.123Z,0.00
2018-07-14T01:59:02.059Z,0.00
2018-07-14T02:00:02.129Z,0.00
2018-07-14T02:01:02.124Z,0.00
2018-07-14T02:02:02.069Z,0.00
2018-07-14T02:03:02.062Z,0.00
2018-07-14T02:04:02.124Z,0.00
2018-07-14T02:05:02.088Z,0.00
2018-07-14T02:06:02.131Z,0.00
2018-07-14T02:07:02.108Z,0.00
2018-07-14T02:08:02.063Z,0.00
2018-07-14T02:09:02.127Z,0.00
2018-07-14T02:10:02.166Z,0.00
2018-07-14T02:11:02.096Z,0.00
2018-07-14T02:12:02.052Z,0.00
2018-07-14T02:13:02.134Z,0.00
2018-07-14T02:14:02.132Z,0.00
2018-07-14T02:15:02.173Z,0.00
2018-07-14T02:16:02.040Z,0.00
2018-07-14T02:17:02.104Z,0.00
2018-07-14T02:18:02.152Z,0.00
2018-07-14T02:19:02.164Z,0.00
2018-07-14T02:20:02.122Z,0.00
2018-07-14T02:21:02.101Z,0.00
2018-07-14T02:22:02.138Z,0.00
2018-07-14T02:23:02.045Z,0.00
2018-07-14T02:24:02.110Z,0.00
2018-07-14T02:25:02.160Z,0.00
2018-07-14T02:26:02.107Z,0.00
2018-07-14T02:27:02.164Z,0.00
2018-07-14T02:28:02.143Z,0.00
2018-07-14T02:29:02.111Z,0.00
2018-07-14T02:30:02.049Z,0.00
2018-07-14T02:31:02.136Z,0.00
2018-07-14T02:32:02.063Z,0.00
2018-07-14T02:33:02.141Z,0.00
2018-07-14T02:34:02.068Z,0.00
2018-07-14T02:35:02.087Z,0.00
2018-07-14T02:36:02.079Z,0.00
2018-07-14T02:37:02.143Z,0.00
2018-07-14T02:38:02.148Z,0.00
2018-07-14T02:39:02.023Z,0.00
2018-07-14T02:40:02.085Z,0.00
2018-07-14T02:41:02.137Z,0.00
2018-07-14T02:42:02.134Z,0.00
2018-07-14T02:43:02.103Z,0.00
2018-07-14T02:44:02.103Z,0.00
2018-07-14T02:45:02.056Z,0.00
2018-07-14T02:46:02.136Z,0.00
2018-07-14T02:47:02.086Z,0.00
2018-07-14T02:48:02.023Z,0.00
2018-07-14T02:49:02.137Z,0.00
2018-07-14T02:50:02.061Z,0.00
2018-07-14T02:51:02.155Z,0.00
2018-07-14T02:52:02.122Z,0.00
2018-07-14T02:53:02.158Z,0.00
2018-07-14T02:54:02.127Z,0.00
2018-07-14T02:55:02.163Z,0.00
2018-07-14T02:56:02.205Z,0.00
2018-07-14T02:57:02.062Z,0.00
2018-07-14T02:58:02.142Z,0.00
2018-07-14T02:59:02.066Z,0.00
2018-07-14T03:00:02.192Z,0.00
2018-07-14T03:01:02.082Z,0.00
2018-07-14T03:02:02.110Z,0.00
2018-07-14T03:03:02.147Z,0.00
2018-07-14T03:04:02.202Z,0.00
2018-07-14T03:05:02.092Z,0.00
2018-07-14T03:06:02.202Z,0.00
2018-07-14T03:07:02.144Z,0.00
2018-07-14T03:08:02.168Z,0.00
2018-07-14T03:09:02.202Z,0.00
2018-07-14T03:10:02.158Z,0.00
2018-07-14T03:11:02.172Z,0.00
2018-07-14T03:12:02.206Z,0.00
2018-07-14T03:13:02.208Z,0.00
2018-07-14T03:14:02.091Z,0.00
2018-07-14T03:15:02.098Z,0.00
2018-07-14T03:16:02.205Z,0.00
2018-07-14T03:17:02.129Z,0.00
2018-07-14T03:18:02.173Z,0.00
2018-07-14T03:19:02.183Z,0.00
2018-07-14T03:20:02.083Z,0.00
2018-07-14T03:21:02.205Z,0.00
2018-07-14T03:22:02.119Z,0.00
2018-07-14T03:23:02.214Z,0.00
2018-07-14T03:24:02.163Z,0.00
2018-07-14T03:25:02.183Z,0.00
2018-07-14T03:26:02.127Z,0.00
2018-07-14T03:27:02.182Z,0.00
2018-07-14T03:28:02.201Z,0.00
2018-07-14T03:29:02.181Z,0.00
2018-07-14T03:30:02.143Z,0.00
2018-07-14T03:31:02.224Z,0.00
2018-07-14T03:32:02.156Z,0.00
2018-07-14T03:33:02.214Z,0.00
2018-07-14T03:34:02.224Z,0.00
2018-07-14T03:35:02.156Z,0.00
2018-07-14T03:36:02.164Z,0.00
2018-07-14T03:37:02.163Z,0.00
2018-07-14T03:38:02.204Z,0.00
2018-07-14T03:39:02.153Z,0.00
2018-07-14T03:40:02.197Z,0.00
2018-07-14T03:41:02.229Z,0.00
2018-07-14T03:42:02.339Z,0.00
2018-07-14T03:43:02.099Z,0.00
2018-07-14T03:44:02.135Z,0.00
2018-07-14T03:45:02.221Z,0.00
2018-07-14T03:46:02.173Z,0.00
2018-07-14T03:47:02.194Z,0.00
2018-07-14T03:48:02.150Z,0.00
2018-07-14T03:49:02.222Z,0.00
2018-07-14T03:50:02.237Z,0.00
2018-07-14T03:51:02.161Z,0.00
2018-07-14T03:52:02.197Z,0.00
2018-07-14T03:53:02.165Z,0.00
2018-07-14T03:54:02.221Z,0.00
2018-07-14T03:55:02.241Z,0.00
2018-07-14T03:56:02.163Z,0.00
2018-07-14T03:57:02.337Z,0.00
2018-07-14T03:58:02.158Z,0.00
2018-07-14T03:59:02.236Z,0.00
2018-07-14T04:00:02.112Z,0.00
2018-07-14T04:01:02.110Z,0.00
2018-07-14T04:02:02.108Z,0.00
2018-07-14T04:03:02.203Z,0.00
2018-07-14T04:04:02.113Z,0.00
2018-07-14T04:05:02.198Z,0.00
2018-07-14T04:06:02.115Z,0.00
2018-07-14T04:07:02.141Z,0.00
2018-07-14T04:08:02.167Z,0.00
2018-07-14T04:09:02.131Z,0.00
2018-07-14T04:10:02.205Z,0.00
2018-07-14T04:11:02.246Z,0.00
2018-07-14T04:12:02.210Z,0.00
2018-07-14T04:13:02.214Z,0.00
2018-07-14T04:14:02.149Z,0.00
2018-07-14T04:15:02.214Z,0.00
2018-07-14T04:16:02.149Z,0.00
2018-07-14T04:17:02.216Z,0.00
2018-07-14T04:18:02.217Z,0.00
2018-07-14T04:19:02.169Z,0.00
2018-07-14T04:20:02.153Z,0.00
2018-07-14T04:21:02.157Z,0.00
2018-07-14T04:22:02.250Z,0.00
2018-07-14T04:23:02.258Z,0.00
2018-07-14T04:24:02.160Z,0.00
2018-07-14T04:25:02.196Z,0.00
2018-07-14T04:26:02.237Z,0.00
2018-07-14T04:27:02.217Z,0.00
2018-07-14T04:28:02.255Z,0.00
2018-07-14T04:29:02.188Z,0.00
2018-07-14T04:30:02.192Z,0.00
2018-07-14T04:31:02.156Z,0.00
2018-07-14T04:32:02.220Z,0.00
2018-07-14T04:33:02.217Z,0.00
2018-07-14T04:34:02.222Z,0.00
2018-07-14T04:35:02.165Z,0.00
2018-07-14T04:36:02.164Z,0.00
2018-07-14T04:37:02.217Z,0.00
2018-07-14T04:38:02.183Z,0.00
2018-07-14T04:39:02.217Z,0.00
2018-07-14T04:40:02.182Z,0.00
2018-07-14T04:41:02.203Z,0.00
2018-07-14T04:42:02.240Z,0.00
2018-07-14T04:43:02.208Z,0.00
2018-07-14T04:44:02.196Z,0.00
2018-07-14T04:45:02.259Z,0.00
2018-07-14T04:46:02.255Z,0.00
2018-07-14T04:47:02.187Z,0.00
2018-07-14T04:48:02.269Z,0.00
2018-07-14T04:49:02.136Z,0.00
2018-07-14T04:50:02.137Z,0.00
2018-07-14T04:51:02.270Z,0.00
2018-07-14T04:52:02.238Z,0.00
2018-07-14T04:53:02.263Z,0.00
2018-07-14T04:54:02.208Z,0.00
2018-07-14T04:55:02.203Z,0.00
2018-07-14T04:56:02.329Z,0.00
2018-07-14T04:57:02.242Z,0.00
2018-07-14T04:58:02.284Z,0.00
2018-07-14T04:59:02.180Z,0.00
2018-07-14T05:00:02.279Z,0.00
2018-07-14T05:01:02.213Z,0.00
2018-07-14T05:02:02.275Z,0.00
2018-07-14T05:03:02.226Z,0.00
2018-07-14T05:04:02.247Z,0.00
2018-07-14T05:05:02.194Z,0.00
2018-07-14T05:06:02.276Z,0.00
2018-07-14T05:07:02.170Z,0.00
2018-07-14T05:08:02.185Z,0.00
2018-07-14T05:09:02.188Z,0.00
2018-07-14T05:10:02.192Z,0.00
2018-07-14T05:11:02.286Z,0.00
2018-07-14T05:12:02.219Z,0.00
2018-07-14T05:13:02.252Z,0.00
2018-07-14T05:14:02.174Z,0.00
2018-07-14T05:15:02.173Z,0.00
2018-07-14T05:16:02.214Z,0.00
2018-07-14T05:17:02.232Z,0.00
2018-07-14T05:18:02.234Z,0.00
2018-07-14T05:19:02.232Z,0.00
2018-07-14T05:20:02.295Z,0.00
2018-07-14T05:21:02.257Z,0.00
2018-07-14T05:22:02.190Z,0.00
2018-07-14T05:23:02.193Z,0.00
2018-07-14T05:24:02.279Z,0.10
2018-07-14T05:25:02.193Z,0.00
2018-07-14T05:26:02.153Z,0.00
2018-07-14T05:27:02.152Z,0.00
2018-07-14T05:28:02.195Z,0.00
2018-07-14T05:29:02.264Z,0.00
2018-07-14T05:30:02.266Z,0.30
2018-07-14T05:31:02.288Z,0.40
2018-07-14T05:32:02.263Z,0.30
2018-07-14T05:33:02.170Z,0.40
2018-07-14T05:34:02.302Z,0.10
2018-07-14T05:35:02.268Z,0.40
2018-07-14T05:36:02.287Z,0.10
2018-07-14T05:37:02.187Z,0.30
2018-07-14T05:38:02.247Z,0.20
2018-07-14T05:39:02.246Z,0.30
2018-07-14T05:40:02.300Z,0.00
2018-07-14T05:41:02.228Z,0.20
2018-07-14T05:42:02.139Z,0.00
2018-07-14T05:43:02.162Z,0.20
2018-07-14T05:44:02.271Z,0.60
2018-07-14T05:45:02.165Z,0.00
2018-07-14T05:46:02.232Z,0.10
2018-07-14T05:47:02.198Z,0.70
2018-07-14T05:48:02.175Z,0.50
2018-07-14T05:49:02.148Z,0.00
2018-07-14T05:50:02.236Z,0.00
2018-07-14T05:51:02.266Z,0.00
2018-07-14T05:52:02.254Z,0.00
2018-07-14T05:53:02.202Z,0.00
2018-07-14T05:54:02.196Z,0.00
2018-07-14T05:55:02.278Z,0.00
2018-07-14T05:56:02.200Z,0.00
2018-07-14T05:57:02.279Z,0.10
2018-07-14T05:58:02.270Z,0.00
2018-07-14T05:59:02.202Z,0.00
2018-07-14T06:00:02.321Z,0.20
2018-07-14T06:01:02.288Z,0.00
2018-07-14T06:02:02.292Z,0.00
2018-07-14T06:03:02.218Z,0.00
2018-07-14T06:04:02.291Z,0.00
2018-07-14T06:05:02.220Z,0.00
2018-07-14T06:06:02.292Z,0.10
2018-07-14T06:07:02.307Z,0.00
2018-07-14T06:08:02.235Z,0.00
2018-07-14T06:09:02.296Z,0.00
2018-07-14T06:10:02.297Z,0.00
2018-07-14T06:11:02.213Z,0.00
2018-07-14T06:12:02.220Z,0.00
2018-07-14T06:13:02.295Z,0.00
2018-07-14T06:14:02.212Z,0.00
2018-07-14T06:15:02.266Z,0.00
2018-07-14T06:16:02.324Z,0.00
2018-07-14T06:17:02.301Z,0.00
2018-07-14T06:18:02.221Z,0.00
2018-07-14T06:19:02.354Z,0.00
2018-07-14T06:20:02.301Z,0.00
2018-07-14T06:21:02.238Z,0.00
2018-07-14T06:22:02.221Z,0.00
2018-07-14T06:23:02.328Z,0.00
2018-07-14T06:24:02.333Z,0.00
2018-07-14T06:25:02.206Z,0.00
2018-07-14T06:26:02.301Z,0.00
2018-07-14T06:27:02.208Z,0.00
2018-07-14T06:28:02.230Z,0.00
2018-07-14T06:29:02.274Z,0.00
2018-07-14T06:30:02.342Z,0.30
2018-07-14T06:31:02.365Z,0.00
2018-07-14T06:32:02.334Z,0.00
2018-07-14T06:33:02.306Z,0.00
2018-07-14T06:34:02.269Z,0.00
2018-07-14T06:35:02.285Z,0.00
2018-07-14T06:36:02.274Z,0.00
2018-07-14T06:37:02.212Z,0.00
2018-07-14T06:38:02.281Z,0.00
2018-07-14T06:39:02.317Z,0.00
2018-07-14T06:40:02.308Z,0.00
2018-07-14T06:43:14.858Z,0.00
2018-07-14T06:44:02.293Z,0.00
2018-07-14T06:45:02.238Z,0.00
2018-07-14T06:46:02.294Z,0.00
2018-07-14T06:47:02.331Z,0.00
2018-07-14T06:48:02.379Z,0.00
2018-07-14T06:49:02.338Z,0.00
2018-07-14T06:50:02.358Z,0.00
2018-07-14T06:51:02.320Z,0.00
2018-07-14T06:52:02.248Z,0.00
2018-07-14T06:53:02.358Z,0.00
2018-07-14T06:54:02.295Z,0.00
2018-07-14T06:55:02.318Z,0.00
2018-07-14T06:56:02.288Z,0.00
2018-07-14T06:57:02.354Z,0.00
2018-07-14T06:58:02.226Z,0.00
2018-07-14T06:59:02.322Z,0.00
2018-07-14T07:00:02.348Z,0.00
2018-07-14T07:01:02.300Z,0.00
2018-07-14T07:02:02.369Z,0.00
2018-07-14T07:03:02.327Z,0.00
2018-07-14T07:04:02.368Z,0.00
2018-07-14T07:05:02.362Z,0.00
2018-07-14T07:06:02.290Z,0.00
2018-07-14T07:07:02.245Z,0.00
2018-07-14T07:08:02.288Z,0.00
2018-07-14T07:09:02.252Z,0.00
2018-07-14T07:10:02.348Z,0.00
2018-07-14T07:11:02.292Z,0.00
2018-07-14T07:12:02.325Z,0.00
2018-07-14T07:13:02.214Z,0.00
2018-07-14T07:14:02.239Z,0.00
2018-07-14T07:15:02.329Z,0.00
2018-07-14T07:16:02.275Z,0.00
2018-07-14T07:17:02.331Z,0.00
2018-07-14T07:18:02.279Z,0.00
2018-07-14T07:19:02.325Z,0.00
2018-07-14T07:20:02.250Z,0.00
2018-07-14T07:21:02.377Z,0.00
2018-07-14T07:22:02.317Z,0.00
2018-07-14T07:23:02.264Z,0.00
2018-07-14T07:24:02.246Z,0.00
2018-07-14T07:25:02.343Z,0.00
2018-07-14T07:26:02.280Z,0.00
2018-07-14T07:27:02.310Z,0.00
2018-07-14T07:28:02.267Z,0.00
2018-07-14T07:29:02.347Z,0.00
2018-07-14T07:30:02.355Z,0.00
2018-07-14T07:31:02.382Z,0.00
2018-07-14T07:32:02.377Z,0.00
2018-07-14T07:33:02.361Z,0.00
2018-07-14T07:34:02.333Z,0.00
2018-07-14T07:35:02.428Z,0.00
2018-07-14T07:36:02.365Z,0.00
2018-07-14T07:37:02.251Z,0.00
2018-07-14T07:38:02.380Z,0.00
2018-07-14T07:39:02.354Z,0.00
2018-07-14T07:40:02.327Z,0.00
2018-07-14T07:41:02.354Z,0.00
2018-07-14T07:42:02.337Z,0.00
2018-07-14T07:43:02.255Z,0.00
2018-07-14T07:44:02.260Z,0.00
2018-07-14T07:45:02.338Z,0.00
2018-07-14T07:46:02.378Z,0.00
2018-07-14T07:47:02.298Z,0.00
2018-07-14T07:48:02.385Z,0.00
2018-07-14T07:49:02.256Z,0.00
2018-07-14T07:50:02.386Z,0.00
2018-07-14T07:51:02.339Z,0.00
2018-07-14T07:52:02.396Z,0.00
2018-07-14T07:53:02.361Z,0.00
2018-07-14T07:54:02.394Z,0.00
2018-07-14T07:55:02.360Z,0.00
2018-07-14T07:56:02.360Z,0.00
2018-07-14T07:57:02.357Z,0.00
2018-07-14T07:58:02.403Z,0.00
2018-07-14T07:59:02.328Z,0.00
2018-07-14T08:00:02.323Z,0.20
2018-07-14T08:01:02.308Z,0.00
2018-07-14T08:02:02.387Z,0.00
2018-07-14T08:03:02.311Z,0.00
2018-07-14T08:04:02.645Z,0.00
2018-07-14T08:05:02.335Z,0.00
2018-07-14T08:06:02.277Z,0.00
2018-07-14T08:07:02.376Z,0.00
2018-07-14T08:08:02.353Z,0.00
2018-07-14T08:09:02.371Z,0.00
2018-07-14T08:10:02.279Z,0.00
2018-07-14T08:11:02.369Z,0.00
2018-07-14T08:12:02.374Z,0.00
2018-07-14T08:13:02.370Z,0.00
2018-07-14T08:14:02.399Z,0.00
2018-07-14T08:15:02.296Z,0.00
2018-07-14T08:16:02.288Z,0.00
2018-07-14T08:17:02.315Z,0.00
2018-07-14T08:20:02.350Z,0.00
2018-07-14T08:21:02.343Z,0.00
2018-07-14T08:22:02.302Z,0.00
2018-07-14T08:23:02.422Z,0.00
2018-07-14T08:24:02.421Z,0.00
2018-07-14T08:25:02.412Z,0.00
2018-07-14T08:26:02.284Z,0.00
2018-07-14T08:27:02.422Z,0.00
2018-07-14T08:28:02.382Z,0.00
2018-07-14T08:29:02.287Z,0.00
2018-07-14T08:30:02.424Z,0.00
2018-07-14T08:31:02.323Z,0.00
2018-07-14T08:32:02.324Z,0.00
2018-07-14T08:33:02.386Z,0.00
2018-07-14T08:34:02.346Z,0.53
2018-07-14T08:35:02.324Z,0.23
2018-07-14T08:36:02.386Z,0.00
2018-07-14T08:37:02.386Z,0.00
2018-07-14T08:38:02.334Z,0.00
2018-07-14T08:39:02.321Z,0.00
2018-07-14T08:40:02.324Z,0.00
2018-07-14T08:41:02.390Z,0.00
2018-07-14T08:42:02.399Z,0.07
2018-07-14T08:43:02.367Z,0.00
2018-07-14T08:44:02.295Z,0.00
2018-07-14T08:45:02.352Z,0.00
2018-07-14T08:46:02.400Z,0.00
2018-07-14T08:47:02.337Z,0.00
2018-07-14T08:48:02.435Z,0.00
2018-07-14T08:49:02.354Z,0.00
2018-07-14T08:50:02.300Z,0.00
2018-07-14T08:51:02.460Z,0.00
2018-07-14T08:52:02.261Z,0.00
2018-07-14T08:53:02.388Z,0.00
2018-07-14T08:54:02.377Z,0.00
2018-07-14T08:55:02.296Z,0.00
2018-07-14T08:56:02.360Z,0.00
2018-07-14T08:57:02.378Z,0.00
2018-07-14T08:58:02.315Z,0.23
2018-07-14T08:59:02.304Z,0.00
2018-07-14T09:00:02.276Z,0.00
2018-07-14T09:01:02.386Z,0.00
2018-07-14T09:02:02.404Z,0.00
2018-07-14T09:03:02.376Z,0.00
2018-07-14T09:04:02.372Z,0.00
2018-07-14T09:05:02.405Z,0.15
2018-07-14T09:06:02.313Z,0.00
2018-07-14T09:07:02.389Z,0.00
2018-07-14T09:08:02.435Z,0.00
2018-07-14T09:09:02.411Z,0.00
2018-07-14T09:10:02.377Z,0.00
2018-07-14T09:11:02.415Z,0.00
2018-07-14T09:12:02.281Z,0.00
2018-07-14T09:13:02.406Z,0.00
2018-07-14T09:14:02.414Z,0.00
2018-07-14T09:15:02.288Z,0.00
2018-07-14T09:16:02.404Z,0.00
2018-07-14T09:17:02.316Z,0.00
2018-07-14T09:18:02.375Z,0.00
2018-07-14T09:19:02.405Z,0.00
2018-07-14T09:20:02.387Z,0.00
2018-07-14T09:21:02.306Z,0.00
2018-07-14T09:22:02.397Z,0.00
2018-07-14T09:23:02.437Z,0.00
2018-07-14T09:24:02.398Z,0.00
2018-07-14T09:25:02.359Z,0.00
2018-07-14T09:26:02.395Z,0.00
2018-07-14T09:27:02.431Z,0.00
2018-07-14T09:28:02.420Z,0.00
2018-07-14T09:29:02.449Z,0.00
2018-07-14T09:30:02.462Z,0.00
2018-07-14T09:31:02.402Z,0.00
2018-07-14T09:32:02.369Z,0.00
2018-07-14T09:33:02.362Z,0.00
2018-07-14T09:34:02.430Z,0.00
2018-07-14T09:35:02.427Z,0.00
2018-07-14T09:36:02.362Z,0.00
2018-07-14T09:37:02.360Z,0.00
2018-07-14T09:38:02.549Z,0.15
2018-07-14T09:39:02.435Z,0.00
2018-07-14T09:40:02.367Z,0.00
2018-07-14T09:41:02.329Z,0.00
2018-07-14T09:42:02.364Z,0.00
2018-07-14T09:43:02.374Z,0.00
2018-07-14T09:44:02.410Z,0.00
2018-07-14T09:45:02.438Z,0.65
2018-07-14T09:46:02.370Z,0.00
2018-07-14T09:47:02.438Z,0.73
2018-07-14T09:48:02.371Z,0.00
2018-07-14T09:49:02.455Z,0.00
2018-07-14T09:50:02.438Z,0.14
2018-07-14T09:51:02.439Z,0.00
2018-07-14T09:52:02.374Z,0.00
2018-07-14T09:53:02.374Z,0.00
2018-07-14T09:54:02.441Z,0.00
2018-07-14T09:55:02.442Z,0.00
2018-07-14T09:56:02.441Z,0.00
2018-07-14T09:57:02.401Z,0.00
2018-07-14T09:58:02.478Z,0.00
2018-07-14T09:59:02.377Z,0.00
2018-07-14T10:00:02.445Z,0.00
2018-07-14T10:01:02.380Z,0.19
2018-07-14T10:02:02.403Z,0.00
2018-07-14T10:03:02.471Z,0.00
2018-07-14T10:04:02.474Z,0.07
2018-07-14T10:05:02.482Z,0.07
2018-07-14T10:06:02.442Z,0.00
2018-07-14T10:07:02.407Z,0.27
2018-07-14T10:08:02.477Z,0.00
2018-07-14T10:09:02.414Z,0.00
2018-07-14T10:10:02.445Z,0.00
2018-07-14T10:11:02.406Z,0.06
2018-07-14T10:12:02.390Z,0.00
2018-07-14T10:13:02.451Z,0.00
2018-07-14T10:14:02.415Z,0.00
2018-07-14T10:15:02.413Z,0.40
2018-07-14T10:16:02.396Z,0.00
2018-07-14T10:17:02.388Z,0.00
2018-07-14T10:18:02.458Z,0.00
2018-07-14T10:19:02.456Z,0.00
2018-07-14T10:20:02.400Z,0.00
2018-07-14T10:21:02.392Z,0.06
2018-07-14T10:22:02.462Z,0.00
2018-07-14T10:23:02.415Z,0.00
2018-07-14T10:24:02.465Z,0.00
2018-07-14T10:25:02.432Z,0.07
2018-07-14T10:26:02.462Z,0.00
2018-07-14T10:27:02.462Z,0.00
2018-07-14T10:28:02.460Z,0.20
2018-07-14T10:29:02.607Z,0.47
2018-07-14T10:30:02.384Z,0.00
2018-07-14T10:31:02.465Z,0.00
2018-07-14T10:32:02.375Z,0.00
2018-07-14T10:33:02.445Z,0.00
2018-07-14T10:34:02.567Z,0.00
2018-07-14T10:35:02.411Z,0.00
2018-07-14T10:36:02.395Z,0.00
2018-07-14T10:37:02.394Z,0.00
2018-07-14T10:38:02.443Z,0.00
2018-07-14T10:39:02.498Z,0.00
2018-07-14T10:40:02.408Z,0.00
2018-07-14T10:41:02.507Z,0.00
2018-07-14T10:42:02.523Z,0.23
2018-07-14T10:43:02.364Z,0.00
2018-07-14T10:44:02.381Z,0.40
2018-07-14T10:45:02.474Z,0.50
2018-07-14T10:46:02.348Z,0.48
2018-07-14T10:47:02.386Z,0.00
2018-07-14T10:48:02.476Z,0.00
2018-07-14T10:49:02.382Z,0.00
2018-07-14T10:50:02.503Z,0.00
2018-07-14T10:51:02.399Z,0.00
2018-07-14T10:52:02.478Z,0.00
2018-07-14T10:53:02.418Z,0.00
2018-07-14T10:54:02.522Z,0.00
2018-07-14T10:55:02.489Z,0.00
2018-07-14T10:56:02.426Z,0.00
2018-07-14T10:57:02.517Z,0.00
2018-07-14T10:58:02.462Z,0.00
2018-07-14T10:59:02.467Z,0.00
2018-07-14T11:00:02.516Z,0.00
2018-07-14T11:01:02.454Z,0.00
2018-07-14T11:02:02.478Z,0.70
2018-07-14T11:03:02.467Z,0.00
2018-07-14T11:04:02.346Z,0.00
2018-07-14T11:05:02.378Z,0.00
2018-07-14T11:06:02.385Z,0.00
2018-07-14T11:07:02.357Z,0.00
2018-07-14T11:08:02.413Z,0.00
2018-07-14T11:09:02.384Z,0.00
2018-07-14T11:10:02.464Z,0.00
2018-07-14T11:11:02.416Z,0.10
2018-07-14T11:12:02.567Z,0.60
2018-07-14T11:13:02.447Z,0.54
2018-07-14T11:14:02.415Z,0.40
2018-07-14T11:15:02.478Z,0.23
2018-07-14T11:16:02.368Z,0.00
2018-07-14T11:17:02.451Z,0.14
2018-07-14T11:18:02.421Z,0.00
2018-07-14T11:19:02.391Z,0.00
2018-07-14T11:20:02.362Z,0.00
2018-07-14T11:21:02.436Z,0.00
2018-07-14T11:22:02.502Z,0.00
2018-07-14T11:23:02.462Z,0.00
2018-07-14T11:24:02.498Z,0.30
2018-07-14T11:25:02.429Z,0.30
2018-07-14T11:26:02.504Z,0.00
2018-07-14T11:27:02.433Z,0.40
2018-07-14T11:28:02.448Z,0.00
2018-07-14T11:29:02.448Z,0.00
2018-07-14T11:30:02.507Z,0.00
2018-07-14T11:31:02.454Z,0.06
2018-07-14T11:32:02.491Z,0.00
2018-07-14T11:33:02.413Z,0.00
2018-07-14T11:34:02.517Z,0.00
2018-07-14T11:35:02.508Z,0.00
2018-07-14T11:36:02.542Z,0.00
2018-07-14T11:37:02.453Z,0.00
2018-07-14T11:38:02.485Z,0.00
2018-07-14T11:39:02.491Z,0.15
2018-07-14T11:40:02.513Z,0.00
2018-07-14T11:41:02.513Z,0.00
2018-07-14T11:42:02.470Z,0.00
2018-07-14T11:43:02.402Z,0.00
2018-07-14T11:44:02.406Z,0.23
2018-07-14T11:45:02.408Z,0.00
2018-07-14T11:46:02.412Z,0.00
2018-07-14T11:47:02.526Z,0.00
2018-07-14T11:48:02.527Z,0.00
2018-07-14T11:49:02.398Z,1.00
2018-07-14T11:50:02.413Z,0.30
2018-07-14T11:51:02.418Z,0.00
2018-07-14T11:52:02.521Z,0.07
2018-07-14T11:53:02.424Z,0.70
2018-07-14T11:54:02.479Z,0.50
2018-07-14T11:55:02.495Z,0.00
2018-07-14T11:56:02.557Z,0.00
2018-07-14T11:57:02.560Z,0.00
2018-07-14T11:58:02.521Z,1.40
2018-07-14T11:59:02.492Z,0.50
2018-07-14T12:00:02.486Z,0.40
2018-07-14T12:01:02.542Z,0.30
2018-07-14T12:02:02.446Z,0.60
2018-07-14T12:03:02.399Z,0.30
2018-07-14T12:04:02.457Z,0.70
2018-07-14T12:05:02.523Z,1.00
2018-07-14T12:06:02.506Z,1.50
2018-07-14T12:07:02.401Z,0.80
2018-07-14T12:08:02.527Z,0.40
2018-07-14T12:09:02.522Z,0.50
2018-07-14T12:10:02.527Z,0.80
2018-07-14T12:11:02.474Z,1.30
2018-07-14T12:12:02.534Z,0.90
2018-07-14T12:13:02.472Z,0.70
2018-07-14T12:14:02.472Z,0.80
2018-07-14T12:15:02.472Z,0.70
2018-07-14T12:16:02.473Z,0.60
2018-07-14T12:17:02.536Z,0.30
2018-07-14T12:19:02.592Z,0.70
2018-07-14T12:20:02.539Z,0.30
2018-07-14T12:21:02.470Z,0.00
2018-07-14T12:22:02.449Z,0.00
2018-07-14T12:23:02.620Z,0.00
2018-07-14T12:24:02.452Z,0.00
2018-07-14T12:25:02.421Z,0.00
2018-07-14T12:26:02.531Z,0.00
2018-07-14T12:27:02.535Z,0.30
2018-07-14T12:28:02.458Z,0.20
2018-07-14T12:29:02.532Z,0.40
2018-07-14T12:30:02.546Z,0.20
2018-07-14T12:31:02.536Z,0.00
2018-07-14T12:32:02.549Z,1.90
2018-07-14T12:33:02.554Z,1.20
2018-07-14T12:34:02.484Z,0.90
2018-07-14T12:35:02.549Z,0.20
2018-07-14T12:36:02.665Z,0.50
2018-07-14T12:37:02.551Z,1.60
2018-07-14T12:38:02.484Z,2.10
2018-07-14T12:39:02.458Z,1.00
2018-07-14T12:40:02.486Z,0.90
2018-07-14T12:41:02.556Z,0.90
2018-07-14T12:42:02.538Z,0.80
2018-07-14T12:43:02.516Z,0.90
2018-07-14T12:44:02.536Z,1.10
2018-07-14T12:45:02.570Z,1.50
2018-07-14T12:46:02.517Z,2.10
2018-07-14T12:47:02.574Z,0.70
2018-07-14T12:48:02.590Z,0.70
2018-07-14T12:49:02.556Z,1.40
2018-07-14T12:50:02.574Z,1.10
2018-07-14T12:51:02.513Z,1.80
2018-07-14T12:52:02.479Z,1.30
2018-07-14T12:53:02.563Z,1.00
2018-07-14T12:54:02.562Z,1.40
2018-07-14T12:55:02.523Z,0.60
2018-07-14T12:56:02.565Z,0.80
2018-07-14T12:57:02.579Z,0.60
2018-07-14T12:58:02.547Z,1.50
2018-07-14T12:59:02.488Z,1.10
2018-07-14T13:00:02.538Z,0.30
2018-07-14T13:01:02.584Z,0.30
2018-07-14T13:02:02.531Z,0.10
2018-07-14T13:03:02.599Z,0.00
2018-07-14T13:04:02.597Z,0.00
2018-07-14T13:05:02.513Z,0.00
2018-07-14T13:06:02.601Z,0.80
2018-07-14T13:07:02.548Z,1.20
2018-07-14T13:08:02.536Z,1.20
2018-07-14T13:09:02.612Z,0.30
2018-07-14T13:10:02.606Z,1.09
2018-07-14T13:11:02.538Z,0.80
2018-07-14T13:12:02.475Z,0.30
2018-07-14T13:13:02.603Z,0.70
2018-07-14T13:14:02.603Z,0.70
2018-07-14T13:15:02.599Z,0.30
2018-07-14T13:16:02.560Z,0.00
2018-07-14T13:17:02.634Z,0.00
2018-07-14T13:18:02.581Z,0.80
2018-07-14T13:19:02.556Z,0.12
2018-07-14T13:20:02.586Z,0.00
2018-07-14T13:21:02.600Z,0.30
2018-07-14T13:22:02.588Z,0.00
2018-07-14T13:23:02.570Z,0.30